Time;durP1;ratioP1;P1;durP2;ratioP2;P2;SDS_P1;SDS_P2;PMS_P1;PMS_P2;Temp;Humidity;BMP_temperature;BMP_pressure;BME280_temperature;BME280_humidity;BME280_pressure;Samples;Min_cycle;Max_cycle;Signal;HPM_P1;HPM_P2
2023/05/09 00:01:42;;;;;;;;;;;;;;;-142.75;100.00;76755.34;5006697;28;20546;-66
2023/05/09 00:04:07;;;;;;;;;;;;;;;-142.75;100.00;76763.22;5006272;28;19922;-66
2023/05/09 00:06:33;;;;;;;;;;;;;;;-142.75;100.00;76775.03;5005075;28;19924;-66
2023/05/09 00:08:58;;;;;;;;;;;;;;;-142.75;100.00;76780.94;5021181;28;19917;-66
2023/05/09 00:11:23;;;;;;;;;;;;;;;-142.75;100.00;76796.69;5006337;28;19936;-66
2023/05/09 00:13:49;;;;;;;;;;;;;;;-142.75;100.00;76782.91;5009927;28;19918;-66
2023/05/09 00:16:15;;;;;;;;;;;;;;;-142.75;100.00;76788.81;5009040;28;20330;-66
2023/05/09 00:18:41;;;;;;;;;;;;;;;-142.75;100.00;76788.81;5010661;28;20316;-66
2023/05/09 00:21:06;;;;;;;;;;;;;;;-142.75;100.00;76778.97;5010496;28;19913;-66
2023/05/09 00:23:31;;;;;;;;;;;;;;;-142.75;100.00;76800.63;5010301;28;20382;-66
2023/05/09 00:25:57;;;;;;;;;;;;;;;-142.75;100.00;76788.81;5009994;28;19921;-66
2023/05/09 00:28:23;;;;;;;;;;;;;;;-142.75;100.00;76769.13;5010452;28;19917;-66
2023/05/09 00:30:48;;;;;;;;;;;;;;;-142.75;100.00;76778.97;5025401;28;19936;-66
2023/05/09 00:33:14;;;;;;;;;;;;;;;-142.75;100.00;76773.06;5010098;28;20008;-66
2023/05/09 00:35:39;;;;;;;;;;;;;;;-142.75;100.00;76786.84;5024930;28;19913;-66
2023/05/09 00:38:04;;;;;;;;;;;;;;;-142.75;100.00;76786.84;5009814;28;19913;-66
2023/05/09 00:40:30;;;;;;;;;;;;;;;-142.75;100.00;76782.91;5007770;28;20378;-66
2023/05/09 00:42:57;;;;;;;;;;;;;;;-142.75;100.00;76782.91;5009749;28;19967;-65
2023/05/09 00:45:22;;;;;;;;;;;;;;;-142.75;100.00;76778.97;5009775;28;19913;-66
2023/05/09 00:47:48;;;;;;;;;;;;;;;-142.75;100.00;76782.91;5010119;28;19913;-66
2023/05/09 00:50:13;;;;;;;;;;;;;;;-142.75;100.00;76775.03;5024349;23;19922;-68
2023/05/09 00:52:39;;;;;;;;;;;;;;;-142.75;100.00;76771.09;4985291;28;20315;-67
2023/05/09 00:55:07;;;;;;;;;;;;;;;-142.75;100.00;76763.22;4987908;28;20020;-69
2023/05/09 00:57:32;;;;;;;;;;;;;;;-142.75;100.00;76761.25;4990386;28;20356;-68
2023/05/09 00:59:57;;;;;;;;;;;;;;;-142.75;100.00;76769.13;4990074;28;20020;-69
2023/05/09 01:02:23;;;;;;;;;;;;;;;-142.75;100.00;76765.19;4977860;28;20310;-69
2023/05/09 01:04:48;;;;;;;;;;;;;;;-142.75;100.00;76763.22;4988988;28;20420;-68
2023/05/09 01:07:29;;;;;;;;;;;;;;;-142.75;100.00;76757.31;4990257;28;19921;-69
2023/05/09 01:09:58;;;;;;;;;;;;;;;-142.75;100.00;76745.50;4994832;28;19952;-67
2023/05/09 01:12:26;;;;;;;;;;;;;;;-142.75;100.00;76749.44;4990064;28;19936;-68
2023/05/09 01:14:54;;;;;;;;;;;;;;;-142.75;100.00;76735.66;4989767;28;20080;-68
2023/05/09 01:17:37;;;;;;;;;;;;;;;-142.75;100.00;76743.53;4990603;28;19913;-69
2023/05/09 01:20:17;;;;;;;;;;;;;;;-142.75;100.00;76747.47;4989347;28;20469;-68
2023/05/09 01:22:45;;;;;;;;;;;;;;;-142.75;100.00;76751.41;4988784;28;20407;-69
2023/05/09 01:25:13;;;;;;;;;;;;;;;-142.75;100.00;76775.03;4988103;28;19914;-69
2023/05/09 01:27:43;;;;;;;;;;;;;;;-142.75;100.00;76767.16;4990139;28;20310;-69
2023/05/09 01:30:09;;;;;;;;;;;;;;;-142.75;100.00;76763.22;5003403;28;19918;-71
2023/05/09 01:32:37;;;;;;;;;;;;;;;-142.75;100.00;76747.47;4989757;28;19925;-69
2023/05/09 01:35:03;;;;;;;;;;;;;;;-142.75;100.00;76743.53;4977321;28;20350;-69
2023/05/09 01:37:30;;;;;;;;;;;;;;;-142.75;100.00;76753.38;4989882;28;19947;-67
2023/05/09 01:39:57;;;;;;;;;;;;;;;-142.75;100.00;76747.47;4989429;28;20004;-69
2023/05/09 01:42:24;;;;;;;;;;;;;;;-142.75;100.00;76747.47;4979679;28;19921;-70
2023/05/09 01:44:51;;;;;;;;;;;;;;;-142.75;100.00;76733.69;4980766;28;19949;-69
2023/05/09 01:47:18;;;;;;;;;;;;;;;-142.75;100.00;76759.28;4990152;28;19956;-69
2023/05/09 01:49:45;;;;;;;;;;;;;;;-142.75;100.00;76747.47;4989123;28;19917;-68
2023/05/09 01:52:12;;;;;;;;;;;;;;;-142.75;100.00;76735.66;4989509;28;19972;-68
2023/05/09 01:54:38;;;;;;;;;;;;;;;-142.75;100.00;76727.78;4976091;28;20288;-68
2023/05/09 01:57:05;;;;;;;;;;;;;;;-142.75;100.00;76721.88;4980791;28;20004;-71
2023/05/09 01:59:32;;;;;;;;;;;;;;;-142.75;100.00;76737.63;4989054;28;19920;-68
2023/05/09 02:01:57;;;;;;;;;;;;;;;-142.75;100.00;76737.63;4989006;28;19952;-68
2023/05/09 02:04:23;;;;;;;;;;;;;;;-142.75;100.00;76733.69;4989031;28;19949;-68
2023/05/09 02:06:50;;;;;;;;;;;;;;;-142.75;100.00;76719.91;4979641;28;19917;-69
2023/05/09 02:09:16;;;;;;;;;;;;;;;-142.75;100.00;76715.97;4988810;28;19921;-67
2023/05/09 02:11:42;;;;;;;;;;;;;;;-142.75;100.00;76717.94;4989154;28;19925;-69
2023/05/09 02:14:07;;;;;;;;;;;;;;;-142.75;100.00;76708.09;4988677;28;19914;-68
2023/05/09 02:16:32;;;;;;;;;;;;;;;-142.75;100.00;76727.78;4989223;28;19914;-68
2023/05/09 02:18:57;;;;;;;;;;;;;;;-142.75;100.00;76717.94;4988945;28;19922;-68
2023/05/09 02:21:23;;;;;;;;;;;;;;;-142.75;100.00;76712.03;4988986;28;19920;-71
2023/05/09 02:23:48;;;;;;;;;;;;;;;-142.75;100.00;76723.84;4982005;28;20004;-68
2023/05/09 02:26:14;;;;;;;;;;;;;;;-142.75;100.00;76712.03;4983192;28;19914;-70
2023/05/09 02:28:41;;;;;;;;;;;;;;;-142.75;100.00;76719.91;4988720;28;19976;-68
2023/05/09 02:31:07;;;;;;;;;;;;;;;-142.75;100.00;76715.97;4988493;28;19933;-69
2023/05/09 02:33:33;;;;;;;;;;;;;;;-142.75;100.00;76704.16;4988440;28;19948;-68
2023/05/09 02:35:59;;;;;;;;;;;;;;;-142.75;100.00;76702.19;4987739;28;19921;-69
2023/05/09 02:38:26;;;;;;;;;;;;;;;-142.75;100.00;76704.16;4988489;28;20404;-67
2023/05/09 02:40:51;;;;;;;;;;;;;;;-142.75;100.00;76698.25;4978134;28;19914;-69
2023/05/09 02:43:17;;;;;;;;;;;;;;;-142.75;100.00;76708.09;4979463;28;19960;-68
2023/05/09 02:45:42;;;;;;;;;;;;;;;-142.75;100.00;76698.25;4983121;28;19924;-68
2023/05/09 02:48:07;;;;;;;;;;;;;;;-142.75;100.00;76692.34;4988771;28;19915;-68
2023/05/09 02:50:33;;;;;;;;;;;;;;;-142.75;100.00;76688.41;4988069;28;19921;-69
2023/05/09 02:52:58;;;;;;;;;;;;;;;-142.75;100.00;76686.44;4988044;28;20532;-68
2023/05/09 02:55:23;;;;;;;;;;;;;;;-142.75;100.00;76678.56;4987875;28;19921;-67
2023/05/09 02:57:48;;;;;;;;;;;;;;;-142.75;100.00;76676.59;4988125;28;19945;-68
2023/05/09 03:00:14;;;;;;;;;;;;;;;-142.75;100.00;76668.72;4988178;28;19913;-69
2023/05/09 03:02:39;;;;;;;;;;;;;;;-142.75;100.00;76660.84;4988001;28;19984;-67
2023/05/09 03:05:05;;;;;;;;;;;;;;;-142.75;100.00;76680.53;4988193;28;19913;-68
2023/05/09 03:07:30;;;;;;;;;;;;;;;-142.75;100.00;76654.94;4988073;28;19964;-70
2023/05/09 03:09:55;;;;;;;;;;;;;;;-142.75;100.00;76672.66;4987591;28;19968;-67
2023/05/09 03:12:20;;;;;;;;;;;;;;;-142.75;100.00;76647.06;4988094;28;19913;-69
2023/05/09 03:14:45;;;;;;;;;;;;;;;-142.75;100.00;76647.06;4987714;28;19914;-68
2023/05/09 03:17:11;;;;;;;;;;;;;;;-142.75;100.00;76666.75;4988025;28;19921;-69
2023/05/09 03:19:36;;;;;;;;;;;;;;;-142.75;100.00;76664.78;4971529;28;20301;-71
2023/05/09 03:22:01;;;;;;;;;;;;;;;-142.75;100.00;76660.84;4987987;28;19924;-69
2023/05/09 03:24:29;;;;;;;;;;;;;;;-142.75;100.00;76664.78;4987286;28;19921;-69
2023/05/09 03:26:54;;;;;;;;;;;;;;;-142.75;100.00;76649.03;4991164;28;19917;-70
2023/05/09 03:29:20;;;;;;;;;;;;;;;-142.75;100.00;76660.84;4987684;28;19920;-66
2023/05/09 03:31:45;;;;;;;;;;;;;;;-142.75;100.00;76652.97;4980719;28;19964;-70
2023/05/09 03:34:13;;;;;;;;;;;;;;;-142.75;100.00;76639.19;4987160;28;19949;-70
2023/05/09 03:36:39;;;;;;;;;;;;;;;-142.75;100.00;76627.38;4987584;28;19935;-68
2023/05/09 03:39:04;;;;;;;;;;;;;;;-142.75;100.00;76625.41;4987550;28;20454;-69
2023/05/09 03:41:30;;;;;;;;;;;;;;;-142.75;100.00;76629.34;4987311;28;20399;-70
2023/05/09 03:43:55;;;;;;;;;;;;;;;-142.75;100.00;76609.66;4987081;28;20394;-68
2023/05/09 03:46:20;;;;;;;;;;;;;;;-142.75;100.00;76621.47;4987225;28;20016;-69
2023/05/09 03:48:45;;;;;;;;;;;;;;;-142.75;100.00;76603.75;4979223;28;19913;-71
2023/05/09 03:51:11;;;;;;;;;;;;;;;-142.75;100.00;76605.72;4986945;28;19918;-69
2023/05/09 03:53:36;;;;;;;;;;;;;;;-142.75;100.00;76625.41;4989135;28;19914;-68
2023/05/09 03:56:01;;;;;;;;;;;;;;;-142.75;100.00;76619.50;4986908;28;20028;-70
2023/05/09 03:58:26;;;;;;;;;;;;;;;-142.75;100.00;76633.28;4999196;28;20329;-70
2023/05/09 04:00:52;;;;;;;;;;;;;;;-142.75;100.00;76623.44;4987072;28;19963;-68
2023/05/09 04:03:17;;;;;;;;;;;;;;;-142.75;100.00;76615.56;4986760;28;19940;-69
2023/05/09 04:05:42;;;;;;;;;;;;;;;-142.75;100.00;76621.47;4986243;28;20048;-69
2023/05/09 04:08:08;;;;;;;;;;;;;;;-142.75;100.00;76615.56;4990961;28;19913;-68
2023/05/09 04:10:33;;;;;;;;;;;;;;;-142.75;100.00;76617.53;4986610;28;20378;-71
2023/05/09 04:12:58;;;;;;;;;;;;;;;-142.75;100.00;76609.66;4986363;28;19920;-70
2023/05/09 04:15:23;;;;;;;;;;;;;;;-142.75;100.00;76593.91;4983962;28;19914;-67
2023/05/09 04:17:49;;;;;;;;;;;;;;;-142.75;100.00;76601.78;4987460;28;19913;-69
2023/05/09 04:20:14;;;;;;;;;;;;;;;-142.75;100.00;76603.75;4986854;28;19925;-70
2023/05/09 04:22:39;;;;;;;;;;;;;;;-142.75;100.00;76597.84;4972092;28;19914;-68
2023/05/09 04:25:05;;;;;;;;;;;;;;;-142.75;100.00;76621.47;4986537;28;19914;-69
2023/05/09 04:27:30;;;;;;;;;;;;;;;-142.75;100.00;76623.44;4987077;28;19922;-71
2023/05/09 04:29:56;;;;;;;;;;;;;;;-142.75;100.00;76607.69;4986661;28;19924;-69
2023/05/09 04:32:21;;;;;;;;;;;;;;;-142.75;100.00;76613.59;4987032;28;19917;-69
2023/05/09 04:34:46;;;;;;;;;;;;;;;-142.75;100.00;76617.53;4986911;28;19922;-68
2023/05/09 04:37:12;;;;;;;;;;;;;;;-142.75;100.00;76603.75;4986879;28;19957;-69
2023/05/09 04:39:37;;;;;;;;;;;;;;;-142.75;100.00;76611.63;4986654;28;19958;-69
2023/05/09 04:42:03;;;;;;;;;;;;;;;-142.75;100.00;76597.84;4986806;28;19988;-68
2023/05/09 04:44:28;;;;;;;;;;;;;;;-142.75;100.00;76603.75;4990895;28;19917;-68
2023/05/09 04:46:54;;;;;;;;;;;;;;;-142.75;100.00;76595.88;4987176;28;19913;-68
2023/05/09 04:49:19;;;;;;;;;;;;;;;-142.75;100.00;76570.28;4986842;28;19914;-69
2023/05/09 04:51:44;;;;;;;;;;;;;;;-142.75;100.00;76562.41;4986620;28;20478;-69
2023/05/09 04:54:09;;;;;;;;;;;;;;;-142.75;100.00;76558.47;4986403;28;20302;-68
2023/05/09 04:56:35;;;;;;;;;;;;;;;-142.75;100.00;76576.19;4986198;28;19914;-68
2023/05/09 04:59:00;;;;;;;;;;;;;;;-142.75;100.00;76562.41;4994253;28;19913;-69
2023/05/09 05:01:25;;;;;;;;;;;;;;;-142.75;100.00;76558.47;4991023;28;19914;-67
2023/05/09 05:03:50;;;;;;;;;;;;;;;-142.75;100.00;76554.53;4991031;28;20294;-69
2023/05/09 05:06:16;;;;;;;;;;;;;;;-142.75;100.00;76536.84;4999302;28;19945;-68
2023/05/09 05:08:41;;;;;;;;;;;;;;;-142.75;100.00;76534.84;4990785;28;20000;-68
2023/05/09 05:11:07;;;;;;;;;;;;;;;-142.75;100.00;76523.06;4990370;28;19937;-69
2023/05/09 05:13:32;;;;;;;;;;;;;;;-142.75;100.00;76530.91;4990859;28;20068;-71
2023/05/09 05:15:57;;;;;;;;;;;;;;;-142.75;100.00;76521.09;4990516;28;20448;-67
2023/05/09 05:18:23;;;;;;;;;;;;;;;-142.75;100.00;76525.03;4998248;28;19920;-68
2023/05/09 05:20:48;;;;;;;;;;;;;;;-142.75;100.00;76519.13;4990896;28;19914;-68
2023/05/09 05:23:13;;;;;;;;;;;;;;;-142.75;100.00;76538.78;4990435;28;19913;-68
2023/05/09 05:25:38;;;;;;;;;;;;;;;-142.75;100.00;76542.72;4990445;28;19914;-68
2023/05/09 05:28:03;;;;;;;;;;;;;;;-142.75;100.00;76540.75;4990529;28;20306;-68
2023/05/09 05:30:29;;;;;;;;;;;;;;;-142.75;100.00;76530.91;4990157;28;20567;-70
2023/05/09 05:32:54;;;;;;;;;;;;;;;-142.75;100.00;76532.88;4980729;28;19914;-68
2023/05/09 05:35:22;;;;;;;;;;;;;;;-142.75;100.00;76542.72;4989703;28;20000;-69
2023/05/09 05:37:47;;;;;;;;;;;;;;;-142.75;100.00;76546.66;4988224;28;19913;-67
2023/05/09 05:40:13;;;;;;;;;;;;;;;-142.75;100.00;76542.72;4990060;28;20203;-69
2023/05/09 05:42:38;;;;;;;;;;;;;;;-142.75;100.00;76536.84;4990012;28;20001;-67
2023/05/09 05:45:03;;;;;;;;;;;;;;;-142.75;100.00;76544.69;4989691;28;19996;-68
2023/05/09 05:47:32;;;;;;;;;;;;;;;-142.75;100.00;76515.19;4990054;28;19914;-69
2023/05/09 05:49:58;;;;;;;;;;;;;;;-142.75;100.00;76523.06;4986718;28;19917;-67
2023/05/09 05:52:23;;;;;;;;;;;;;;;-142.75;100.00;76507.31;4989743;28;19968;-67
2023/05/09 05:54:48;;;;;;;;;;;;;;;-142.75;100.00;76527.00;4978704;28;19913;-69
2023/05/09 05:57:13;;;;;;;;;;;;;;;-142.75;100.00;76527.00;4989854;28;19976;-68
2023/05/09 05:59:39;;;;;;;;;;;;;;;-142.75;100.00;76515.19;4983656;28;19975;-69
2023/05/09 06:02:04;;;;;;;;;;;;;;;-142.75;100.00;76507.31;5000146;28;19914;-68
2023/05/09 06:04:29;;;;;;;;;;;;;;;-142.75;100.00;76519.13;4989707;28;19955;-67
2023/05/09 06:06:55;;;;;;;;;;;;;;;-142.75;100.00;76505.34;4989283;28;20350;-68
2023/05/09 06:09:20;;;;;;;;;;;;;;;-142.75;100.00;76507.31;4989345;28;19964;-69
2023/05/09 06:11:45;;;;;;;;;;;;;;;-142.75;100.00;76499.44;4983634;28;19961;-66
2023/05/09 06:14:10;;;;;;;;;;;;;;;-142.75;100.00;76489.59;4989352;28;20397;-70
2023/05/09 06:16:35;;;;;;;;;;;;;;;-142.75;100.00;76489.59;4989023;28;19967;-66
2023/05/09 06:19:01;;;;;;;;;;;;;;;-142.75;100.00;76501.41;4989357;28;19914;-67
2023/05/09 06:21:26;;;;;;;;;;;;;;;-142.75;100.00;76513.22;4989379;28;20004;-68
2023/05/09 06:23:51;;;;;;;;;;;;;;;-142.75;100.00;76527.00;4989260;28;19917;-68
2023/05/09 06:26:16;;;;;;;;;;;;;;;-142.75;100.00;76534.84;4987593;28;20291;-69
2023/05/09 06:28:41;;;;;;;;;;;;;;;-142.75;100.00;76519.13;4989237;28;19917;-68
2023/05/09 06:31:07;;;;;;;;;;;;;;;-142.75;100.00;76519.13;4988622;28;20405;-68
2023/05/09 06:33:32;;;;;;;;;;;;;;;-142.75;100.00;76513.22;4979281;28;19921;-69
2023/05/09 06:35:58;;;;;;;;;;;;;;;-142.75;100.00;76499.44;4988800;28;19917;-66
2023/05/09 06:38:23;;;;;;;;;;;;;;;-142.75;100.00;76485.66;4980849;28;19913;-69
2023/05/09 06:40:48;;;;;;;;;;;;;;;-142.75;100.00;76497.47;4988873;28;19920;-69
2023/05/09 06:43:14;;;;;;;;;;;;;;;-142.75;100.00;76491.56;4988695;28;19914;-69
2023/05/09 06:45:39;;;;;;;;;;;;;;;-142.75;100.00;76495.50;4988697;28;19913;-68
2023/05/09 06:48:04;;;;;;;;;;;;;;;-142.75;100.00;76499.44;4988534;28;20362;-69
2023/05/09 06:50:29;;;;;;;;;;;;;;;-142.75;100.00;76487.63;4989068;28;20403;-68
2023/05/09 06:52:55;;;;;;;;;;;;;;;-142.75;100.00;76475.81;4988504;28;19928;-67
2023/05/09 06:55:20;;;;;;;;;;;;;;;-142.75;100.00;76462.03;4987071;28;19913;-67
2023/05/09 06:57:45;;;;;;;;;;;;;;;-142.75;100.00;76479.75;4987080;28;20485;-68
2023/05/09 07:00:10;;;;;;;;;;;;;;;-142.75;100.00;76456.13;4988279;28;19935;-68
2023/05/09 07:02:40;;;;;;;;;;;;;;;-142.75;100.00;76450.22;4986769;28;20311;-68
2023/05/09 07:05:05;;;;;;;;;;;;;;;-142.75;100.00;76440.38;4985272;28;19913;-69
2023/05/09 07:07:30;;;;;;;;;;;;;;;-142.75;100.00;76438.41;4987680;28;20398;-68
2023/05/09 07:09:56;;;;;;;;;;;;;;;-142.75;100.00;76428.56;4977608;28;19991;-68
2023/05/09 07:12:21;;;;;;;;;;;;;;;-142.75;100.00;76430.53;4988073;28;20351;-68
2023/05/09 07:14:46;;;;;;;;;;;;;;;-142.75;100.00;76414.78;4987796;28;19925;-67
2023/05/09 07:17:11;;;;;;;;;;;;;;;-142.75;100.00;76399.03;4987782;28;19913;-68
2023/05/09 07:19:36;;;;;;;;;;;;;;;-142.75;100.00;76406.91;4986785;28;19913;-68
2023/05/09 07:22:02;;;;;;;;;;;;;;;-142.75;100.00;76401.00;4987553;28;19920;-68
2023/05/09 07:24:27;;;;;;;;;;;;;;;-142.75;100.00;76391.16;4984372;28;20548;-68
2023/05/09 07:26:52;;;;;;;;;;;;;;;-142.75;100.00;76406.91;4981112;28;19909;-67
2023/05/09 07:29:19;;;;;;;;;;;;;;;-142.75;100.00;76391.16;4986332;28;19909;-67
2023/05/09 07:31:44;;;;;;;;;;;;;;;-142.75;100.00;76389.19;4979743;28;20554;-67
2023/05/09 07:34:09;;;;;;;;;;;;;;;-142.75;100.00;76377.38;4988084;28;20000;-67
2023/05/09 07:36:36;;;;;;;;;;;;;;;-142.75;100.00;76359.66;4999245;28;19910;-68
2023/05/09 07:39:01;;;;;;;;;;;;;;;-142.75;100.00;76349.81;4978788;28;19909;-67
2023/05/09 07:41:26;;;;;;;;;;;;;;;-142.75;100.00;76340.00;4987488;28;20024;-69
2023/05/09 07:43:51;;;;;;;;;;;;;;;-142.75;100.00;76341.97;4986718;28;19929;-69
2023/05/09 07:46:17;;;;;;;;;;;;;;;-142.75;100.00;76349.81;4987282;28;19910;-67
2023/05/09 07:48:42;;;;;;;;;;;;;;;-142.75;100.00;76355.72;4988491;28;19910;-69
2023/05/09 07:51:07;;;;;;;;;;;;;;;-142.75;100.00;76345.91;4988253;28;19913;-66
2023/05/09 07:53:32;;;;;;;;;;;;;;;-142.75;100.00;76340.00;4988778;28;19909;-67
2023/05/09 07:55:58;;;;;;;;;;;;;;;-142.75;100.00;76326.22;4989378;28;19914;-66
2023/05/09 07:58:26;;;;;;;;;;;;;;;-142.75;100.00;76320.31;4989332;28;20002;-66
2023/05/09 08:00:51;;;;;;;;;;;;;;;-142.75;100.00;76318.34;4986646;28;19941;-68
2023/05/09 08:03:16;;;;;;;;;;;;;;;-142.75;100.00;76316.38;4977057;28;20359;-67
2023/05/09 08:05:41;;;;;;;;;;;;;;;-142.75;100.00;76308.50;4976984;28;20429;-67
2023/05/09 08:08:07;;;;;;;;;;;;;;;-142.75;100.00;76308.50;5000758;28;20375;-67
2023/05/09 08:10:32;;;;;;;;;;;;;;;-142.75;100.00;76302.59;4987167;28;20374;-67
2023/05/09 08:12:57;;;;;;;;;;;;;;;-142.75;100.00;76308.50;4981526;28;19921;-66
2023/05/09 08:15:22;;;;;;;;;;;;;;;-142.75;100.00;76304.56;4987628;28;19920;-67
2023/05/09 08:17:48;;;;;;;;;;;;;;;-142.75;100.00;76306.53;4988832;28;19920;-67
2023/05/09 08:20:13;;;;;;;;;;;;;;;-142.75;100.00;76296.69;4987985;28;20498;-68
2023/05/09 08:22:39;;;;;;;;;;;;;;;-142.75;100.00;76314.41;4988118;28;19956;-67
2023/05/09 08:25:04;;;;;;;;;;;;;;;-142.75;100.00;76318.34;4981998;28;19921;-69
2023/05/09 08:27:29;;;;;;;;;;;;;;;-142.75;100.00;76306.53;4984674;28;20306;-67
2023/05/09 08:29:55;;;;;;;;;;;;;;;-142.75;100.00;76302.59;4986551;28;22245;-67
2023/05/09 08:32:20;;;;;;;;;;;;;;;-142.75;100.00;76306.53;4987425;28;19925;-66
2023/05/09 08:34:45;;;;;;;;;;;;;;;-142.75;100.00;76312.44;4990671;28;19913;-68
2023/05/09 08:37:10;;;;;;;;;;;;;;;-142.75;100.00;76310.47;4988735;28;19949;-68
2023/05/09 08:39:36;;;;;;;;;;;;;;;-142.75;100.00;76298.66;4983982;28;19920;-67
2023/05/09 08:42:01;;;;;;;;;;;;;;;-142.75;100.00;76310.47;4990142;28;20264;-69
2023/05/09 08:44:28;;;;;;;;;;;;;;;-142.75;100.00;76306.53;4990434;28;20000;-68
2023/05/09 08:47:03;;;;;;;;;;;;;;;-142.75;100.00;76318.34;4990581;28;19921;-66
2023/05/09 08:49:28;;;;;;;;;;;;;;;-142.75;100.00;76320.31;4990780;28;19909;-67
2023/05/09 08:51:54;;;;;;;;;;;;;;;-142.75;100.00;76310.47;4990179;28;20302;-66
2023/05/09 08:54:20;;;;;;;;;;;;;;;-142.75;100.00;76304.56;4990048;28;19975;-68
2023/05/09 08:56:46;;;;;;;;;;;;;;;-142.75;100.00;76300.63;4988430;28;20140;-67
2023/05/09 08:59:12;;;;;;;;;;;;;;;-142.75;100.00;76282.91;4973324;28;19913;-67
2023/05/09 09:01:38;;;;;;;;;;;;;;;-142.75;100.00;76286.84;4972840;28;20043;-67
2023/05/09 09:04:07;;;;;;;;;;;;;;;-142.75;100.00;76275.03;4979888;28;20008;-67
2023/05/09 09:06:35;;;;;;;;;;;;;;;-142.75;100.00;76259.28;4980548;28;20409;-68
2023/05/09 09:09:01;;;;;;;;;;;;;;;-142.75;100.00;76267.16;4990424;28;19936;-69
2023/05/09 09:11:27;;;;;;;;;;;;;;;-142.75;100.00;76263.22;4988611;28;20535;-68
2023/05/09 09:13:53;;;;;;;;;;;;;;;-142.75;100.00;76255.34;4990551;28;19922;-68
2023/05/09 09:16:20;;;;;;;;;;;;;;;-142.75;100.00;76243.53;4977893;28;19929;-68
2023/05/09 09:18:45;;;;;;;;;;;;;;;-142.75;100.00;76249.44;4983520;28;20302;-68
2023/05/09 09:21:11;;;;;;;;;;;;;;;-142.75;100.00;76255.34;4989967;28;19914;-69
2023/05/09 09:23:38;;;;;;;;;;;;;;;-142.75;100.00;76241.56;4986554;28;19913;-67
2023/05/09 09:26:06;;;;;;;;;;;;;;;-142.75;100.00;76237.63;4989956;28;20430;-68
2023/05/09 09:28:32;;;;;;;;;;;;;;;-142.75;100.00;76223.84;4990394;28;19996;-68
2023/05/09 09:30:57;;;;;;;;;;;;;;;-142.75;100.00;76223.84;4989936;28;20342;-67
2023/05/09 09:33:23;;;;;;;;;;;;;;;-142.75;100.00;76217.94;4972980;28;19920;-69
2023/05/09 09:35:50;;;;;;;;;;;;;;;-142.75;100.00;76221.88;4972730;28;19961;-67
2023/05/09 09:38:22;;;;;;;;;;;;;;;-142.75;100.00;76219.91;4992855;28;19914;-67
2023/05/09 09:40:51;;;;;;;;;;;;;;;-142.75;100.00;76219.91;4984422;28;19920;-69
2023/05/09 09:43:16;;;;;;;;;;;;;;;-142.75;100.00;76231.72;4989618;28;20009;-70
2023/05/09 09:45:41;;;;;;;;;;;;;;;-142.75;100.00;76221.88;4988594;28;20385;-69
2023/05/09 09:48:06;;;;;;;;;;;;;;;-142.75;100.00;76229.75;4989528;28;19921;-68
2023/05/09 09:50:32;;;;;;;;;;;;;;;-142.75;100.00;76212.03;4989110;28;19925;-67
2023/05/09 09:52:59;;;;;;;;;;;;;;;-142.75;100.00;76231.72;4989392;28;20416;-64
2023/05/09 09:55:24;;;;;;;;;;;;;;;-142.75;100.00;76210.06;4989572;28;19913;-65
2023/05/09 09:57:50;;;;;;;;;;;;;;;-142.75;100.00;76200.25;4985958;28;20453;-67
2023/05/09 10:00:17;;;;;;;;;;;;;;;-142.75;100.00;76196.31;4989469;28;20348;-67
2023/05/09 10:02:52;;;;;;;;;;;;;;;-142.75;100.00;76178.59;4988985;28;19964;-66
2023/05/09 10:05:22;;;;;;;;;;;;;;;-142.75;100.00;76180.56;4988449;28;19922;-66
2023/05/09 10:08:00;;;;;;;;;;;;;;;-142.75;100.00;76164.81;4987066;28;19997;-67
2023/05/09 10:10:27;;;;;;;;;;;;;;;-142.75;100.00;76162.84;4977511;28;19965;-67
2023/05/09 10:12:55;;;;;;;;;;;;;;;-142.75;100.00;76164.81;5001056;28;19921;-67
2023/05/09 10:15:20;;;;;;;;;;;;;;;-142.75;100.00;76162.84;4996399;28;20525;-69
2023/05/09 10:17:46;;;;;;;;;;;;;;;-142.75;100.00;76164.81;4988894;28;20011;-66
2023/05/09 10:20:12;;;;;;;;;;;;;;;-142.75;100.00;76154.97;4988547;28;19927;-68
2023/05/09 10:22:38;;;;;;;;;;;;;;;-142.75;100.00;76164.81;4987516;28;20379;-68
2023/05/09 10:25:05;;;;;;;;;;;;;;;-142.75;100.00;76158.91;5000972;28;19917;-67
2023/05/09 10:27:33;;;;;;;;;;;;;;;-142.75;100.00;76141.19;4988850;28;20008;-68
2023/05/09 10:30:12;;;;;;;;;;;;;;;-142.75;100.00;76149.06;4988817;28;19965;-68
2023/05/09 10:32:50;;;;;;;;;;;;;;;-142.75;100.00;76141.19;4989096;28;19914;-68
2023/05/09 10:35:16;;;;;;;;;;;;;;;-142.75;100.00;76135.28;4988802;28;19917;-69
2023/05/09 10:37:43;;;;;;;;;;;;;;;-142.75;100.00;76141.19;4988558;28;20411;-70
2023/05/09 10:40:13;;;;;;;;;;;;;;;-142.75;100.00;76158.91;4985697;28;19913;-68
2023/05/09 10:42:40;;;;;;;;;;;;;;;-142.75;100.00;76143.16;4988586;28;19960;-68
2023/05/09 10:45:06;;;;;;;;;;;;;;;-142.75;100.00;76139.22;4987929;28;20290;-67
2023/05/09 10:47:32;;;;;;;;;;;;;;;-142.75;100.00;76121.50;4988641;28;19913;-67
2023/05/09 10:49:57;;;;;;;;;;;;;;;-142.75;100.00;76101.81;4988302;28;20016;-67
2023/05/09 10:52:22;;;;;;;;;;;;;;;-142.75;100.00;76119.53;4988304;28;19914;-65
2023/05/09 10:54:58;;;;;;;;;;;;;;;-142.75;100.00;76119.53;4988719;28;19914;-66
2023/05/09 10:57:23;;;;;;;;;;;;;;;-142.75;100.00;76117.56;4988263;28;19913;-65
2023/05/09 10:59:50;;;;;;;;;;;;;;;-142.75;100.00;76123.47;4988949;28;20402;-66
2023/05/09 11:02:18;;;;;;;;;;;;;;;-142.75;100.00;76105.75;4988262;28;19917;-68
2023/05/09 11:04:44;;;;;;;;;;;;;;;-142.75;100.00;76109.69;4979611;28;19913;-66
2023/05/09 11:07:23;;;;;;;;;;;;;;;-142.75;100.00;76093.94;4985684;28;19964;-67
2023/05/09 11:09:59;;;;;;;;;;;;;;;-142.75;100.00;76091.97;4988494;28;20407;-67
2023/05/09 11:12:25;;;;;;;;;;;;;;;-142.75;100.00;76093.94;4970759;28;19921;-66
2023/05/09 11:14:51;;;;;;;;;;;;;;;-142.75;100.00;76072.31;4988307;28;19913;-68
2023/05/09 11:17:25;;;;;;;;;;;;;;;-142.75;100.00;76091.97;4988176;28;20298;-67
2023/05/09 11:19:50;;;;;;;;;;;;;;;-142.75;100.00;76090.00;4986952;28;19960;-68
2023/05/09 11:22:26;;;;;;;;;;;;;;;-142.75;100.00;76105.75;4988112;28;19913;-67
2023/05/09 11:24:58;;;;;;;;;;;;;;;-142.75;100.00;76129.38;4988278;28;20325;-67
2023/05/09 11:27:25;;;;;;;;;;;;;;;-142.75;100.00;76101.81;4988381;28;19996;-65
2023/05/09 11:29:58;;;;;;;;;;;;;;;-142.75;100.00;76091.97;4986684;28;19914;-68
2023/05/09 11:32:27;;;;;;;;;;;;;;;-142.75;100.00;76109.69;4988024;28;19921;-68
2023/05/09 11:35:04;;;;;;;;;;;;;;;-142.75;100.00;76105.75;4988102;28;19921;-67
2023/05/09 11:37:30;;;;;;;;;;;;;;;-142.75;100.00;76097.88;4987851;28;20390;-67
2023/05/09 11:39:59;;;;;;;;;;;;;;;-142.75;100.00;76097.88;4987906;28;19920;-66
2023/05/09 11:42:26;;;;;;;;;;;;;;;-142.75;100.00;76101.81;4987804;28;20605;-67
2023/05/09 11:44:52;;;;;;;;;;;;;;;-142.75;100.00;76086.06;4987897;28;20016;-67
2023/05/09 11:47:18;;;;;;;;;;;;;;;-142.75;100.00;76068.38;4987742;28;19994;-67
2023/05/09 11:49:43;;;;;;;;;;;;;;;-142.75;100.00;76070.34;4987644;28;19913;-67
2023/05/09 11:52:08;;;;;;;;;;;;;;;-142.75;100.00;76068.38;4987431;28;19918;-67
2023/05/09 11:54:36;;;;;;;;;;;;;;;-142.75;100.00;76078.19;4987522;28;20004;-67
2023/05/09 11:57:01;;;;;;;;;;;;;;;-142.75;100.00;76080.16;4970110;28;20005;-66
2023/05/09 11:59:27;;;;;;;;;;;;;;;-142.75;100.00;76074.25;4987689;28;20458;-65
2023/05/09 12:01:53;;;;;;;;;;;;;;;-142.75;100.00;76068.38;4987893;28;19917;-70
2023/05/09 12:04:18;;;;;;;;;;;;;;;-142.75;100.00;76066.41;4987610;28;19921;-68
2023/05/09 12:06:45;;;;;;;;;;;;;;;-142.75;100.00;76066.41;4986062;28;19914;-69
2023/05/09 12:09:11;;;;;;;;;;;;;;;-142.75;100.00;76064.44;4980769;28;19913;-68
2023/05/09 12:11:37;;;;;;;;;;;;;;;-142.75;100.00;76050.66;4985955;28;19924;-69
2023/05/09 12:14:02;;;;;;;;;;;;;;;-142.75;100.00;76056.56;4987460;28;19914;-69